Terminal Aerodrome Forecast
Issued by NWS

Home | Current Version | Previous Version | Text Only | Print | Product List | Glossary On
Versions: 1 2 3 4 5 6 7 8 9 10 11 12 13 14 15 16 17 18
504
FTUS41 KPBZ 112330
TAFLBE
TAF
KLBE 112330Z 1200/1224 00000KT P6SM OVC070
     FM120300 17005KT P6SM OVC080
     FM121000 21010KT 3SM -SN OVC025
     FM121300 26011G27KT 4SM -SHSN OVC010
     FM121600 28014G31KT P6SM VCSH OVC015=

USA.gov is the U.S. government's official web portal to all federal, state and local government web resources and services.